Impacts TAF Board INFO
FOR SITUATIONAL AWARENESS. NOT TO BE USED FOR FLIGHT PLANNING PURPOSES.
IDs:

KJFK - New York/Kennedy Int, NY, US

Issued at 0904 UTC 19 Nov 2017
Updated at 1021 UTC 19 Nov 2017
Potential Impact None Slight Moderate High
Time0951Z 19/11Z 19/12Z 19/13Z 19/14Z 19/15Z 19/16Z 19/17Z 19/18Z 19/19Z 19/20Z 19/21Z 19/22Z 19/23Z>>
Type OBS PRVL PRVL PRVL PRVL PRVL PRVL PRVL PRVL PRVL PRVL PRVL PRVL PRVL
VIS 5 6 >6 >6 >6 >6 >6 >6 >6 >6 >6 >6 >6 >6
CIG 19 25 35 35 35 40 40 40 40 -- -- -- -- --
Cover OVC BKN BKN BKN BKN BKN BKN BKN BKN SCT SCT SCT SCT SCT
FltCat MVFR MVFR VFR VFR VFR VFR VFR VFR VFR VFR VFR VFR VFR VFR
WX -RA BR SHRA BR -SHRA -SHRA -SHRA -- -- -- -- -- -- -- -- --
WDir 200 200 250 250 250 280 280 280 280 280 280 280 280 290
WSpd 17 22 22 22 22 23 23 23 23 23 23 23 23 18
WGst -- -- 40 40 40 39 39 39 39 35 35 35 35 28

Raw TAF
KJFK 190904Z 1909/2012 20022KT 6SM SHRA BR BKN025 WS020/22050KT
  FM191200 25022G40KT P6SM -SHRA SCT025 BKN035
  FM191500 28023G39KT P6SM BKN040
  FM191900 28023G35KT P6SM SCT050
  FM192300 29018G28KT P6SM SCT050
  FM200600 29016G25KT P6SM FEW050


Raw METAR
KJFK 190951Z 20017KT 5SM -RA BR BKN019 OVC080 14/13 A2928 RMK AO2 PK WND 21026/0932 SLP916 P0009 T01390133
KJFK 190851Z 21019KT 6SM -RA BR BKN021 OVC060 14/13 A2931 RMK AO2 SLP926 P0003 60005 T01390133 56027
KJFK 190751Z 19020KT 6SM -RA BR BKN030 OVC060 13/13 A2934 RMK AO2 RAB08 SLP935 P0002 T01330128

METAR Board
Radar Display
Forecast Discussion

FOR SITUATIONAL AWARENESS. NOT TO BE USED FOR FLIGHT PLANNING PURPOSES.